Airfield :
LOGIN :

Register | Disclaimer

   EN    FR    IT 

 










Legend :    VFR   Marginal VFR   IFR   Intensive IFR   Very Intensive IFR
Visi :
Ceiling :
>= 8 km
>= 3000ft
5 to 8 km
1000 to 3000 ft
1500m to 5 km
500 to 1000 ft
800 to 1500m
200 to 500 ft
< 800m
< 200 ft
Symbols :   Thunderstorms  Fog  Heavy snow  Heavy precipitations  Wind > 20 kt
SIGMETs :     Misc.  Thunderstorms  Icing  Turbulence  Mountain Waves  Volcanic Ashes






- Airport Elevation : 53 ft
- IATA code : AGP


LEMG - Malaga

CURRENT METAR :
  • 210100Z 30008KT 9999 FEW025 SCT040 08/06 Q1024 NOSIG

EXPIRED METARs :
  • 210030Z 30006KT 9999 FEW025 SCT040 09/06 Q1024 NOSIG
  • 210000Z 29006KT 9999 SCT025 BKN058 09/06 Q1025 NOSIG
  • 202330Z 29007KT 9999 FEW026 BKN058 10/06 Q1025 NOSIG
  • 202300Z 29007KT 9999 FEW030 BKN056 10/07 Q1025 NOSIG
  • 202230Z 29006KT 9999 FEW025 BKN052 10/07 Q1025 NOSIG

TAF TAF LEMG
Valid from the 21 at 00:00 until the 22 at 00:00 UTC


202300Z 2100/2124 29007KT 9999 SCT030 SCT040 TX16/2114Z TN06/2106Z
BECMG 2110/2112 12007KT



MET'MAP, your aeronautical weather chart ! - Copyright ORBIFLY December 2007 - Disclaimer

ORBIFLY MET'MAP TEAM :

Programming & Development : Alexandra Zaïnal
Concept & original design : Baudouin d'Aumeries
Assistance for programming : Marc-Olivier Méhu
Technical & hardware support : Manuel Goepfert

Contact : metmap@orbifly.com




SOURCES & CREDITS :

   NOAA